createdAt,value
2023-05-14T00:02:18.249Z,95826.72
2023-05-14T00:04:48.225Z,95823.03
2023-05-14T00:07:17.195Z,95823.22
2023-05-14T00:09:45.915Z,95822.63
2023-05-14T00:12:14.985Z,95823.56
2023-05-14T00:14:43.316Z,95824.53
2023-05-14T00:17:11.907Z,95822.69
2023-05-14T00:19:42.333Z,95827.06
2023-05-14T00:22:12.921Z,95816.22
2023-05-14T00:24:41.406Z,95819.53
2023-05-14T00:27:10.546Z,95811.81
2023-05-14T00:29:38.867Z,95814.91
2023-05-14T00:32:08.265Z,95805.13
2023-05-14T00:34:37.190Z,95802.03
2023-05-14T00:37:05.661Z,95801.41
2023-05-14T00:39:35.600Z,95806.69
2023-05-14T00:42:28.288Z,95804.06
2023-05-14T00:44:56.611Z,95805.13
2023-05-14T00:47:25.945Z,95804.69
2023-05-14T00:49:54.720Z,95803.69
2023-05-14T00:52:23.281Z,95799.91
2023-05-14T00:54:53.631Z,95798.00
2023-05-14T00:57:22.191Z,95796.38
2023-05-14T00:59:50.960Z,95798.63
2023-05-14T01:02:19.723Z,95796.59
2023-05-14T01:04:48.157Z,95801.28
2023-05-14T01:07:24.590Z,95797.56
2023-05-14T01:10:01.753Z,95788.88
2023-05-14T01:12:38.396Z,95784.78
2023-05-14T01:15:12.606Z,95787.81
2023-05-14T01:17:44.764Z,95787.47
2023-05-14T01:20:13.955Z,95790.69
2023-05-14T01:22:43.965Z,95789.72
2023-05-14T01:25:12.334Z,95784.06
2023-05-14T01:27:49.312Z,95781.72
2023-05-14T01:30:23.848Z,95779.28
2023-05-14T01:32:57.139Z,95782.28
2023-05-14T01:35:28.406Z,95783.25
2023-05-14T01:38:00.820Z,95779.72
2023-05-14T01:40:29.547Z,95785.50
2023-05-14T01:42:58.593Z,95780.69
2023-05-14T01:45:26.966Z,95775.44
2023-05-14T01:47:55.160Z,95770.38
2023-05-14T01:50:23.633Z,95773.91
2023-05-14T01:52:53.612Z,95774.69
2023-05-14T01:55:23.861Z,95767.06
2023-05-14T01:57:52.324Z,95767.38
2023-05-14T02:00:20.930Z,95768.63
2023-05-14T02:02:49.112Z,95768.03
2023-05-14T02:05:17.363Z,95765.88
2023-05-14T02:07:45.499Z,95774.28
2023-05-14T02:10:13.719Z,95769.59
2023-05-14T02:12:43.275Z,95761.81
2023-05-14T02:15:12.055Z,95765.63
2023-05-14T02:17:40.273Z,95771.78
2023-05-14T02:20:10.450Z,95759.97
2023-05-14T02:22:42.305Z,95769.44
2023-05-14T02:25:11.438Z,95771.78
2023-05-14T02:27:39.538Z,95763.00
2023-05-14T02:30:10.612Z,95772.94
2023-05-14T02:32:39.400Z,95767.06
2023-05-14T02:35:08.593Z,95765.69
2023-05-14T02:37:36.801Z,95762.19
2023-05-14T02:40:05.435Z,95760.81
2023-05-14T02:42:33.525Z,95763.75
2023-05-14T02:45:01.654Z,95764.34
2023-05-14T02:47:31.250Z,95767.06
2023-05-14T02:49:59.538Z,95758.91
2023-05-14T02:52:27.818Z,95762.44
2023-05-14T02:54:55.979Z,95761.59
2023-05-14T02:57:24.028Z,95759.84
2023-05-14T02:59:52.207Z,95762.28
2023-05-14T03:02:20.839Z,95760.53
2023-05-14T03:04:50.661Z,95758.97
2023-05-14T03:07:18.821Z,95756.25
2023-05-14T03:09:46.979Z,95757.50
2023-05-14T03:12:15.235Z,95747.75
2023-05-14T03:14:43.327Z,95751.94
2023-05-14T03:17:11.774Z,95758.38
2023-05-14T03:19:39.982Z,95746.88
2023-05-14T03:22:09.588Z,95743.19
2023-05-14T03:24:41.063Z,95742.88
2023-05-14T03:27:09.235Z,95747.84
2023-05-14T03:29:37.392Z,95743.06
2023-05-14T03:32:06.252Z,95735.94
2023-05-14T03:34:34.458Z,95752.16
2023-05-14T03:37:02.972Z,95748.06
2023-05-14T03:39:32.534Z,95742.00
2023-05-14T03:42:00.694Z,95746.97
2023-05-14T03:44:28.799Z,95744.53
2023-05-14T03:46:57.253Z,95738.41
2023-05-14T03:49:25.417Z,95744.34
2023-05-14T03:51:53.525Z,95741.59
2023-05-14T03:54:21.670Z,95741.78
2023-05-14T03:56:51.155Z,95741.16
2023-05-14T03:59:19.356Z,95736.38
2023-05-14T04:01:47.478Z,95737.34
2023-05-14T04:04:15.758Z,95748.06
2023-05-14T04:06:43.974Z,95736.47
2023-05-14T04:09:12.143Z,95738.78
2023-05-14T04:11:40.244Z,95731.69
2023-05-14T04:14:09.759Z,95737.72
2023-05-14T04:16:37.891Z,95729.53
2023-05-14T04:19:06.139Z,95728.16
2023-05-14T04:21:34.360Z,95726.47
2023-05-14T04:24:02.529Z,95729.59
2023-05-14T04:26:30.615Z,95728.03
2023-05-14T04:29:02.868Z,95729.13
2023-05-14T04:31:32.894Z,95733.13
2023-05-14T04:34:01.138Z,95739.66
2023-05-14T04:36:29.214Z,95745.41
2023-05-14T04:38:57.269Z,95744.03
2023-05-14T04:41:25.548Z,95744.50
2023-05-14T04:43:57.216Z,95742.47
2023-05-14T04:46:25.411Z,95754.38
2023-05-14T04:48:55.043Z,95748.16
2023-05-14T04:51:23.202Z,95747.66
2023-05-14T04:53:51.384Z,95744.25
2023-05-14T04:56:19.473Z,95743.97
2023-05-14T04:58:47.658Z,95746.28
2023-05-14T05:01:16.277Z,95755.47
2023-05-14T05:03:44.583Z,95745.69
2023-05-14T05:06:14.196Z,95754.38
2023-05-14T05:08:42.464Z,95749.91
2023-05-14T05:11:10.579Z,95744.31
2023-05-14T05:13:38.711Z,95744.91
2023-05-14T05:16:07.467Z,95747.25
2023-05-14T05:18:35.653Z,95739.06
2023-05-14T05:21:03.937Z,95738.75
2023-05-14T05:23:33.581Z,95742.66
2023-05-14T05:26:01.795Z,95736.78
2023-05-14T05:28:30.099Z,95753.38
2023-05-14T05:30:58.405Z,95746.75
2023-05-14T05:33:26.866Z,95749.25
2023-05-14T05:35:55.053Z,95755.97
2023-05-14T05:38:23.357Z,95743.75
2023-05-14T05:40:53.017Z,95747.06
2023-05-14T05:43:21.158Z,95747.72
2023-05-14T05:45:49.346Z,95747.59
2023-05-14T05:48:17.521Z,95759.41
2023-05-14T05:50:48.443Z,95760.06
2023-05-14T05:53:16.940Z,95756.81
2023-05-14T05:55:45.128Z,95757.31
2023-05-14T05:58:17.363Z,95750.59
2023-05-14T06:00:45.831Z,95742.16
2023-05-14T06:03:14.746Z,95748.63
2023-05-14T06:05:42.917Z,95734.16
2023-05-14T06:08:11.074Z,95738.84
2023-05-14T06:10:39.296Z,95749.75
2023-05-14T06:13:07.450Z,95739.56
2023-05-14T06:15:36.975Z,95738.84
2023-05-14T06:18:05.910Z,95731.28
2023-05-14T06:20:34.177Z,95734.28
2023-05-14T06:23:02.300Z,95739.41
2023-05-14T06:25:30.394Z,95739.28
2023-05-14T06:27:58.567Z,95732.03
2023-05-14T06:30:26.935Z,95733.47
2023-05-14T06:32:56.639Z,95732.09
2023-05-14T06:35:25.332Z,95735.59
2023-05-14T06:37:53.420Z,95728.81
2023-05-14T06:40:22.031Z,95729.16
2023-05-14T06:42:50.580Z,95737.47
2023-05-14T06:45:18.884Z,95742.63
2023-05-14T06:47:47.168Z,95737.41
2023-05-14T06:50:16.896Z,95737.72
2023-05-14T06:52:45.291Z,95735.06
2023-05-14T06:55:13.465Z,95739.56
2023-05-14T06:57:41.572Z,95733.94
2023-05-14T07:00:10.850Z,95736.47
2023-05-14T07:02:39.058Z,95739.75
2023-05-14T07:05:08.718Z,95731.66
2023-05-14T07:07:38.248Z,95737.59
2023-05-14T07:10:08.262Z,95731.50
2023-05-14T07:12:36.520Z,95738.03
2023-05-14T07:15:05.161Z,95724.34
2023-05-14T07:17:33.414Z,95738.34
2023-05-14T07:20:01.560Z,95730.09
2023-05-14T07:22:29.695Z,95731.19
2023-05-14T07:24:59.359Z,95728.72
2023-05-14T07:27:27.530Z,95728.88
2023-05-14T07:29:55.790Z,95724.53
2023-05-14T07:32:25.187Z,95723.59
2023-05-14T07:34:53.437Z,95720.53
2023-05-14T07:37:24.014Z,95718.97
2023-05-14T07:39:52.554Z,95711.19
2023-05-14T07:42:34.422Z,95718.34
2023-05-14T07:45:04.082Z,95721.31
2023-05-14T07:47:32.487Z,95718.34
2023-05-14T07:50:01.199Z,95712.13
2023-05-14T07:52:29.420Z,95701.06
2023-05-14T07:54:57.634Z,95707.06
2023-05-14T07:57:27.473Z,95701.41
2023-05-14T07:59:55.635Z,95707.69
2023-05-14T08:02:23.974Z,95700.19
2023-05-14T08:04:52.191Z,95704.22
2023-05-14T08:07:20.979Z,95701.38
2023-05-14T08:09:49.118Z,95694.97
2023-05-14T08:12:17.634Z,95709.66
2023-05-14T08:14:47.227Z,95699.72
2023-05-14T08:17:15.504Z,95702.53
2023-05-14T08:19:43.694Z,95701.84
2023-05-14T08:22:11.828Z,95691.66
2023-05-14T08:24:40.245Z,95693.16
2023-05-14T08:27:08.427Z,95688.09
2023-05-14T08:29:37.170Z,95688.22
2023-05-14T08:32:19.272Z,95680.81
2023-05-14T08:34:50.855Z,95684.41
2023-05-14T08:37:19.234Z,95676.31
2023-05-14T08:39:47.649Z,95680.75
2023-05-14T08:42:19.553Z,95682.53
2023-05-14T08:44:50.377Z,95681.41
2023-05-14T08:47:22.760Z,95666.44
2023-05-14T08:49:56.538Z,95661.47
2023-05-14T08:52:24.804Z,95672.94
2023-05-14T08:54:55.326Z,95668.34
2023-05-14T08:57:26.831Z,95659.97
2023-05-14T08:59:55.967Z,95661.50
2023-05-14T09:02:30.292Z,95665.50
2023-05-14T09:05:00.281Z,95659.84
2023-05-14T09:07:29.439Z,95659.31
2023-05-14T09:09:57.737Z,95652.75
2023-05-14T09:12:26.419Z,95664.34
2023-05-14T09:14:54.676Z,95663.13
2023-05-14T09:17:23.263Z,95657.31
2023-05-14T09:19:53.328Z,95656.75
2023-05-14T09:22:22.688Z,95655.66
2023-05-14T09:25:05.338Z,95648.31
2023-05-14T09:27:34.309Z,95649.13
2023-05-14T09:30:10.586Z,95658.50
2023-05-14T09:32:40.303Z,95654.47
2023-05-14T09:35:17.646Z,95652.06
2023-05-14T09:37:48.217Z,95652.41
2023-05-14T09:40:17.739Z,95645.03
2023-05-14T09:42:46.052Z,95640.31
2023-05-14T09:45:14.562Z,95645.38
2023-05-14T09:47:43.494Z,95627.91
2023-05-14T09:50:13.801Z,95631.38
2023-05-14T09:52:41.977Z,95627.22
2023-05-14T09:55:11.226Z,95625.59
2023-05-14T09:57:39.482Z,95620.88
2023-05-14T10:00:10.371Z,95624.28
2023-05-14T10:02:41.351Z,95626.47
2023-05-14T10:05:10.665Z,95622.56
2023-05-14T10:07:43.464Z,95622.34
2023-05-14T10:10:16.669Z,95619.22
2023-05-14T10:12:49.220Z,95611.59
2023-05-14T10:15:21.151Z,95600.97
2023-05-14T10:17:52.591Z,95603.59
2023-05-14T10:20:22.300Z,95593.41
2023-05-14T10:22:52.521Z,95586.66
2023-05-14T10:25:21.023Z,95595.09
2023-05-14T10:27:49.209Z,95590.44
2023-05-14T10:30:17.614Z,95584.16
2023-05-14T10:32:45.746Z,95582.84
2023-05-14T10:35:18.187Z,95586.88
2023-05-14T10:37:47.319Z,95580.66
2023-05-14T10:40:18.630Z,95587.34
2023-05-14T10:42:48.051Z,95570.63
2023-05-14T10:45:16.999Z,95568.47
2023-05-14T10:47:47.556Z,95560.59
2023-05-14T10:50:17.654Z,95558.41
2023-05-14T10:52:46.972Z,95565.44
2023-05-14T10:55:17.929Z,95559.78
2023-05-14T10:57:47.852Z,95548.03
2023-05-14T11:00:17.156Z,95555.63
2023-05-14T11:02:46.071Z,95543.19
2023-05-14T11:05:17.268Z,95546.91
2023-05-14T11:07:48.117Z,95546.91
2023-05-14T11:10:18.919Z,95546.91
2023-05-14T11:12:49.200Z,95531.84
2023-05-14T11:15:19.313Z,95526.63
2023-05-14T11:17:48.851Z,95529.78
2023-05-14T11:20:18.230Z,95525.16
2023-05-14T11:22:48.395Z,95523.50
2023-05-14T11:25:18.874Z,95523.44
2023-05-14T11:27:48.329Z,95510.25
2023-05-14T11:30:18.237Z,95508.53
2023-05-14T11:32:47.640Z,95510.19
2023-05-14T11:35:16.562Z,95505.31
2023-05-14T11:37:45.200Z,95509.28
2023-05-14T11:40:18.137Z,95496.59
2023-05-14T11:42:46.559Z,95485.53
2023-05-14T11:45:15.651Z,95485.84
2023-05-14T11:47:43.831Z,95483.75
2023-05-14T11:50:12.507Z,95479.34
2023-05-14T11:52:41.645Z,95472.66
2023-05-14T11:55:13.584Z,95468.03
2023-05-14T11:57:44.004Z,95466.50
2023-05-14T12:00:16.959Z,95462.69
2023-05-14T12:02:45.516Z,95459.19
2023-05-14T12:05:14.849Z,95454.28
2023-05-14T12:07:46.161Z,95444.38
2023-05-14T12:10:14.688Z,95445.09
2023-05-14T12:12:48.226Z,95429.13
2023-05-14T12:15:18.485Z,95435.28
2023-05-14T12:17:52.744Z,95428.00
2023-05-14T12:20:22.435Z,95424.63
2023-05-14T12:22:51.173Z,95439.41
2023-05-14T12:25:20.087Z,95435.91
2023-05-14T12:27:51.490Z,95427.19
2023-05-14T12:30:21.918Z,95421.94
2023-05-14T12:32:53.311Z,95414.63
2023-05-14T12:35:22.947Z,95427.72
2023-05-14T12:37:51.986Z,95429.59
2023-05-14T12:40:20.245Z,95430.19
2023-05-14T12:42:49.819Z,95432.50
2023-05-14T12:45:18.005Z,95440.75
2023-05-14T12:47:46.495Z,95442.75
2023-05-14T12:50:14.731Z,95451.53
2023-05-14T12:52:42.984Z,95440.28
2023-05-14T12:55:11.495Z,95438.53
2023-05-14T12:57:40.178Z,95452.06
2023-05-14T13:00:13.874Z,95449.41
2023-05-14T13:02:43.949Z,95454.59
2023-05-14T13:05:12.897Z,95452.25
2023-05-14T13:07:41.196Z,95453.50
2023-05-14T13:10:10.393Z,95443.56
2023-05-14T13:12:38.911Z,95456.19
2023-05-14T13:15:09.921Z,95454.53
2023-05-14T13:17:38.219Z,95451.28
2023-05-14T13:20:07.401Z,95461.13
2023-05-14T13:22:35.536Z,95450.50
2023-05-14T13:25:05.037Z,95447.56
2023-05-14T13:27:33.813Z,95453.09
2023-05-14T13:30:01.928Z,95452.16
2023-05-14T13:32:31.484Z,95452.78
2023-05-14T13:34:59.669Z,95450.91
2023-05-14T13:37:27.948Z,95450.25
2023-05-14T13:39:56.181Z,95444.25
2023-05-14T13:42:24.292Z,95440.59
2023-05-14T13:44:52.462Z,95442.09
2023-05-14T13:47:20.681Z,95433.03
2023-05-14T13:49:50.309Z,95430.34
2023-05-14T13:52:18.370Z,95442.03
2023-05-14T13:54:46.849Z,95424.00
2023-05-14T13:57:15.488Z,95422.03
2023-05-14T13:59:43.753Z,95414.53
2023-05-14T14:02:11.896Z,95420.75
2023-05-14T14:04:40.024Z,95417.16
2023-05-14T14:07:09.544Z,95401.78
2023-05-14T14:09:37.692Z,95399.47
2023-05-14T14:12:06.673Z,95396.03
2023-05-14T14:14:34.904Z,95397.81
2023-05-14T14:17:03.114Z,95390.81
2023-05-14T14:19:31.288Z,95389.19
2023-05-14T14:21:59.409Z,95385.75
2023-05-14T14:24:29.013Z,95393.44
2023-05-14T14:26:57.239Z,95396.16
2023-05-14T14:29:25.370Z,95403.72
2023-05-14T14:31:53.541Z,95399.84
2023-05-14T14:34:21.927Z,95423.00
2023-05-14T14:36:50.045Z,95419.50
2023-05-14T14:39:18.206Z,95415.56
2023-05-14T14:41:47.748Z,95418.41
2023-05-14T14:44:15.857Z,95426.81
2023-05-14T14:46:44.174Z,95435.19
2023-05-14T14:49:12.316Z,95446.94
2023-05-14T14:51:40.841Z,95451.97
2023-05-14T14:54:08.977Z,95446.25
2023-05-14T14:56:37.182Z,95450.63
2023-05-14T14:59:06.728Z,95448.22
2023-05-14T15:01:34.907Z,95451.13
2023-05-14T15:04:03.144Z,95460.06
2023-05-14T15:06:31.333Z,95456.09
2023-05-14T15:08:59.759Z,95460.06
2023-05-14T15:11:29.022Z,95461.09
2023-05-14T15:13:57.223Z,95460.59
2023-05-14T15:16:26.965Z,95466.25
2023-05-14T15:18:55.418Z,95470.97
2023-05-14T15:21:23.752Z,95477.13
2023-05-14T15:23:51.981Z,95467.88
2023-05-14T15:26:20.115Z,95471.63
2023-05-14T15:28:48.337Z,95479.81
2023-05-14T15:31:17.012Z,95477.59
2023-05-14T15:33:46.642Z,95484.59
2023-05-14T15:36:15.180Z,95481.06
2023-05-14T15:38:43.529Z,95488.13
2023-05-14T15:41:11.609Z,95490.44
2023-05-14T15:43:39.850Z,95489.25
2023-05-14T15:46:08.098Z,95485.69
2023-05-14T15:48:36.463Z,95490.06
2023-05-14T15:51:06.419Z,95480.13
2023-05-14T15:53:34.576Z,95482.78
2023-05-14T15:56:02.753Z,95481.31
2023-05-14T15:58:30.981Z,95479.22
2023-05-14T16:00:59.178Z,95474.88
2023-05-14T16:03:27.488Z,95478.06
2023-05-14T16:05:56.446Z,95472.06
2023-05-14T16:08:26.132Z,95465.25
2023-05-14T16:10:54.402Z,95459.84
2023-05-14T16:13:22.918Z,95471.13
2023-05-14T16:15:51.715Z,95466.44
2023-05-14T16:18:20.065Z,95463.50
2023-05-14T16:20:48.736Z,95458.38
2023-05-14T16:23:17.009Z,95460.69
2023-05-14T16:25:46.663Z,95455.19
2023-05-14T16:28:15.275Z,95470.22
2023-05-14T16:30:43.543Z,95472.91
2023-05-14T16:33:12.023Z,95470.94
2023-05-14T16:35:40.590Z,95478.81
2023-05-14T16:38:08.855Z,95467.19
2023-05-14T16:40:37.083Z,95467.34
2023-05-14T16:43:06.877Z,95459.56
2023-05-14T16:48:06.321Z,95462.44
2023-05-14T16:50:34.553Z,95459.50
2023-05-14T16:53:02.879Z,95465.09
2023-05-14T16:55:31.179Z,95464.78
2023-05-14T16:57:59.477Z,95454.94
2023-05-14T17:00:30.575Z,95455.66
2023-05-14T17:02:59.438Z,95461.97
2023-05-14T17:05:29.579Z,95458.50
2023-05-14T17:07:57.824Z,95461.47
2023-05-14T17:10:26.635Z,95467.50
2023-05-14T17:12:54.826Z,95469.16
2023-05-14T17:15:23.446Z,95486.56
2023-05-14T17:17:53.453Z,95494.47
2023-05-14T17:20:21.843Z,95501.88
2023-05-14T17:22:50.080Z,95502.78
2023-05-14T17:25:18.459Z,95515.31
2023-05-14T17:27:46.611Z,95521.81
2023-05-14T17:30:15.073Z,95529.88
2023-05-14T17:32:43.302Z,95535.69
2023-05-14T17:35:12.973Z,95527.75
2023-05-14T17:37:42.871Z,95527.81
2023-05-14T17:40:11.910Z,95525.25
2023-05-14T17:42:40.080Z,95534.47
2023-05-14T17:45:09.933Z,95543.22
2023-05-14T17:47:38.207Z,95540.03
2023-05-14T17:50:07.475Z,95548.22
2023-05-14T17:52:37.814Z,95544.28
2023-05-14T17:55:06.983Z,95543.63
2023-05-14T17:57:35.159Z,95550.59
2023-05-14T18:00:04.831Z,95545.63
2023-05-14T18:02:33.004Z,95548.94
2023-05-14T18:05:02.735Z,95553.38
2023-05-14T18:07:31.284Z,95543.41
2023-05-14T18:10:00.960Z,95552.59
2023-05-14T18:12:29.459Z,95547.19
2023-05-14T18:14:57.553Z,95554.38
2023-05-14T18:17:25.774Z,95560.66
2023-05-14T18:19:54.007Z,95567.31
2023-05-14T18:22:22.527Z,95571.25
2023-05-14T18:24:50.723Z,95568.38
2023-05-14T18:27:20.433Z,95570.78
2023-05-14T18:29:48.633Z,95562.59
2023-05-14T18:32:16.828Z,95585.13
2023-05-14T18:34:45.019Z,95579.72
2023-05-14T18:37:13.766Z,95575.25
2023-05-14T18:39:42.002Z,95564.78
2023-05-14T18:42:10.811Z,95579.66
2023-05-14T18:44:45.117Z,95573.34
2023-05-14T18:47:13.899Z,95578.78
2023-05-14T18:49:42.708Z,95577.47
2023-05-14T18:52:11.324Z,95584.53
2023-05-14T18:54:40.325Z,95584.06
2023-05-14T18:57:09.466Z,95584.41
2023-05-14T18:59:38.487Z,95601.06
2023-05-14T19:02:08.570Z,95589.25
2023-05-14T19:04:50.679Z,95598.28
2023-05-14T19:07:19.689Z,95591.63
2023-05-14T19:09:47.786Z,95586.16
2023-05-14T19:12:16.441Z,95580.19
2023-05-14T19:14:44.749Z,95590.25
2023-05-14T19:17:14.454Z,95592.94
2023-05-14T19:19:43.399Z,95595.13
2023-05-14T19:22:13.766Z,95596.81
2023-05-14T19:24:42.167Z,95589.16
2023-05-14T19:27:16.889Z,95592.44
2023-05-14T19:29:45.942Z,95598.22
2023-05-14T19:32:15.581Z,95601.66
2023-05-14T19:34:43.781Z,95603.19
2023-05-14T19:37:12.249Z,95607.41
2023-05-14T19:39:40.402Z,95610.22
2023-05-14T19:42:08.999Z,95613.97
2023-05-14T19:44:37.150Z,95604.94
2023-05-14T19:47:05.799Z,95612.72
2023-05-14T19:49:35.726Z,95615.22
2023-05-14T19:52:03.908Z,95619.13
2023-05-14T19:54:32.140Z,95620.84
2023-05-14T19:57:00.353Z,95628.31
2023-05-14T19:59:29.801Z,95630.03
2023-05-14T20:01:58.085Z,95630.22
2023-05-14T20:04:26.466Z,95640.03
2023-05-14T20:06:57.077Z,95639.72
2023-05-14T20:09:25.378Z,95638.63
2023-05-14T20:11:54.132Z,95627.41
2023-05-14T20:14:22.353Z,95632.69
2023-05-14T20:16:50.905Z,95628.66
2023-05-14T20:19:21.483Z,95631.19
2023-05-14T20:21:50.213Z,95630.28
2023-05-14T20:24:19.745Z,95635.59
2023-05-14T20:26:48.033Z,95631.06
2023-05-14T20:29:16.147Z,95629.50
2023-05-14T20:31:44.385Z,95624.09
2023-05-14T20:34:12.624Z,95628.28
2023-05-14T20:36:41.936Z,95630.16
2023-05-14T20:39:10.347Z,95634.03
2023-05-14T20:41:39.968Z,95628.88
2023-05-14T20:44:08.643Z,95638.03
2023-05-14T20:46:36.840Z,95628.38
2023-05-14T20:49:05.070Z,95629.16
2023-05-14T20:51:33.233Z,95629.94
2023-05-14T20:54:01.578Z,95632.88
2023-05-14T20:56:30.443Z,95633.66
2023-05-14T20:58:59.999Z,95632.09
2023-05-14T21:01:28.068Z,95627.13
2023-05-14T21:03:56.232Z,95626.56
2023-05-14T21:06:24.475Z,95631.88
2023-05-14T21:08:52.584Z,95624.56
2023-05-14T21:11:21.433Z,95635.75
2023-05-14T21:13:49.536Z,95623.16
2023-05-14T21:16:20.038Z,95626.59
2023-05-14T21:18:48.273Z,95629.56
2023-05-14T21:21:16.441Z,95629.41
2023-05-14T21:23:44.639Z,95632.53
2023-05-14T21:26:12.765Z,95633.78
2023-05-14T21:28:40.945Z,95641.09
2023-05-14T21:31:09.205Z,95634.41
2023-05-14T21:33:38.830Z,95625.06
2023-05-14T21:36:07.959Z,95621.03
2023-05-14T21:38:36.516Z,95607.22
2023-05-14T21:41:04.748Z,95602.34
2023-05-14T21:43:32.998Z,95602.34
2023-05-14T21:46:01.174Z,95601.91
2023-05-14T21:48:29.937Z,95602.97
2023-05-14T21:50:59.544Z,95606.56
2023-05-14T21:53:27.640Z,95607.66
2023-05-14T21:55:56.068Z,95609.53
2023-05-14T21:58:24.405Z,95621.16
2023-05-14T22:00:52.818Z,95613.69
2023-05-14T22:03:21.005Z,95619.13
2023-05-14T22:05:49.289Z,95622.84
2023-05-14T22:08:18.858Z,95618.19
2023-05-14T22:10:48.261Z,95621.91
2023-05-14T22:13:16.335Z,95619.41
2023-05-14T22:15:44.382Z,95621.09
2023-05-14T22:18:13.302Z,95633.34
2023-05-14T22:20:41.462Z,95626.81
2023-05-14T22:23:09.604Z,95628.69
2023-05-14T22:25:39.279Z,95635.03
2023-05-14T22:28:07.491Z,95633.16
2023-05-14T22:30:35.632Z,95634.06
2023-05-14T22:33:03.816Z,95629.84
2023-05-14T22:35:32.001Z,95625.78
2023-05-14T22:38:00.129Z,95616.31
2023-05-14T22:40:28.274Z,95620.38
2023-05-14T22:42:57.811Z,95604.53
2023-05-14T22:45:27.950Z,95614.13
2023-05-14T22:47:56.089Z,95615.94
2023-05-14T22:50:24.252Z,95615.75
2023-05-14T22:52:52.408Z,95623.53
2023-05-14T22:55:21.298Z,95625.88
2023-05-14T22:57:49.529Z,95617.66
2023-05-14T23:00:19.457Z,95621.06
2023-05-14T23:02:47.721Z,95617.66
2023-05-14T23:05:15.997Z,95625.56
2023-05-14T23:07:44.230Z,95625.56
2023-05-14T23:10:12.905Z,95625.09
2023-05-14T23:12:41.075Z,95623.19
2023-05-14T23:15:09.734Z,95626.88
2023-05-14T23:17:39.719Z,95622.97
2023-05-14T23:20:11.001Z,95624.66
2023-05-14T23:22:39.154Z,95631.97
2023-05-14T23:25:08.221Z,95631.38
2023-05-14T23:27:36.608Z,95625.50
2023-05-14T23:30:05.034Z,95630.63
2023-05-14T23:32:33.268Z,95629.44
2023-05-14T23:35:03.125Z,95629.28
2023-05-14T23:37:31.469Z,95628.22
2023-05-14T23:39:59.508Z,95612.38
2023-05-14T23:42:27.667Z,95626.66
2023-05-14T23:44:55.779Z,95622.47
2023-05-14T23:47:23.905Z,95618.28
2023-05-14T23:49:52.112Z,95624.31
2023-05-14T23:52:21.624Z,95623.53
2023-05-14T23:54:49.781Z,95624.31
2023-05-14T23:57:17.879Z,95620.91
2023-05-14T23:59:46.242Z,95622.00
